KINS/INS METAR and TAF weather

Enter ICAO airport designator
Station Type Date Time Source
KINS METAR 2020/09/23 17:58 UTC NOAA

KINS 231758Z AUTO 00000KT 10SM FEW180 FEW210 30/M04 A3013 RMK AO2 SLP156 T02951041 10295 20148 50000 $


Station Type Date Time Source
KINS Decoded METAR 2020/09/23 17:58 UTC NOAA

Indian Springs, Indian Springs Auxiliary AFLD Nellis AFB, NV, United States (KINS) 36-35N 115-40W
Sep 23, 2020 - 01:58 PM EDT / 2020.09.23 1758 UTC
Wind: Calm:0
Visibility: 10 mile(s):0
Sky conditions: mostly clear
Temperature: 85.1 F (29.5 C)
Dew Point: 24.6 F (-4.1 C)
Relative Humidity: 10%
Pressure (altimeter): 30.13 in. Hg (1020 hPa)
Pressure tendency: 0.00 inches (0.0 hPa) higher than three hours ago
ob: KINS 231758Z AUTO 00000KT 10SM FEW180 FEW210 30/M04 A3013 RMK AO2 SLP156 T02951041 10295 20148 50000
cycle: 18

Station Type Date Time Source
KINS TAF 2020/09/23 13:30 UTC NOAA

TAF TAF KINS 231245Z 2313/2419 VRB06KT 9999 SKC QNH3006INS
BECMG 2317/2318 14009KT 9999 SKC QNH3000INS
BECMG 2320/2321 14012G20KT 9999 SKC 510009 QNH2998INS
BECMG 2401/2402 23009KT 9999 SKC QNH2999INS
BECMG 2405/2406 VRB06KT 9999 SKC QNH3003INS TX35/2322Z TN15/2314Z

Example: see airport list